sensor_id;sensor_type;location;lat;lon;timestamp;temperature;humidity
52381;DHT22;38310;52.796;6.942;2023-03-26T00:01:29;7.50;99.90
52381;DHT22;38310;52.796;6.942;2023-03-26T00:03:58;7.50;99.90
52381;DHT22;38310;52.796;6.942;2023-03-26T00:06:26;7.50;99.90
52381;DHT22;38310;52.796;6.942;2023-03-26T00:08:54;7.40;99.90
52381;DHT22;38310;52.796;6.942;2023-03-26T00:11:21;7.40;99.90
52381;DHT22;38310;52.796;6.942;2023-03-26T00:13:47;6.00;99.90
52381;DHT22;38310;52.796;6.942;2023-03-26T00:16:17;7.30;99.90
52381;DHT22;38310;52.796;6.942;2023-03-26T00:18:43;7.30;99.90
52381;DHT22;38310;52.796;6.942;2023-03-26T00:21:14;7.20;99.90
52381;DHT22;38310;52.796;6.942;2023-03-26T00:23:41;7.20;99.90
52381;DHT22;38310;52.796;6.942;2023-03-26T00:26:08;7.30;99.90
52381;DHT22;38310;52.796;6.942;2023-03-26T00:28:37;7.20;99.90
52381;DHT22;38310;52.796;6.942;2023-03-26T00:31:06;7.30;99.90
52381;DHT22;38310;52.796;6.942;2023-03-26T00:33:33;7.30;99.90
52381;DHT22;38310;52.796;6.942;2023-03-26T00:36:04;7.30;99.90
52381;DHT22;38310;52.796;6.942;2023-03-26T00:38:30;7.30;99.90
52381;DHT22;38310;52.796;6.942;2023-03-26T00:40:59;7.30;99.90
52381;DHT22;38310;52.796;6.942;2023-03-26T00:43:31;7.30;99.90
52381;DHT22;38310;52.796;6.942;2023-03-26T00:45:58;7.30;99.90
52381;DHT22;38310;52.796;6.942;2023-03-26T00:48:24;7.30;99.90
52381;DHT22;38310;52.796;6.942;2023-03-26T00:50:55;7.70;99.90
52381;DHT22;38310;52.796;6.942;2023-03-26T00:53:21;7.50;99.90
52381;DHT22;38310;52.796;6.942;2023-03-26T00:55:47;7.30;99.90
52381;DHT22;38310;52.796;6.942;2023-03-26T00:58:13;7.30;99.90
52381;DHT22;38310;52.796;6.942;2023-03-26T01:01:07;7.30;99.90
52381;DHT22;38310;52.796;6.942;2023-03-26T01:03:35;7.30;99.90
52381;DHT22;38310;52.796;6.942;2023-03-26T01:06:07;7.20;99.90
52381;DHT22;38310;52.796;6.942;2023-03-26T01:08:42;7.10;99.90
52381;DHT22;38310;52.796;6.942;2023-03-26T01:11:25;7.10;99.90
52381;DHT22;38310;52.796;6.942;2023-03-26T01:14:04;7.10;99.90
52381;DHT22;38310;52.796;6.942;2023-03-26T01:16:55;7.10;99.90
52381;DHT22;38310;52.796;6.942;2023-03-26T01:19:44;7.00;99.90
52381;DHT22;38310;52.796;6.942;2023-03-26T01:22:21;6.90;99.90
52381;DHT22;38310;52.796;6.942;2023-03-26T01:24:47;6.90;99.90
52381;DHT22;38310;52.796;6.942;2023-03-26T01:27:27;6.90;99.90
52381;DHT22;38310;52.796;6.942;2023-03-26T01:30:16;6.90;99.90
52381;DHT22;38310;52.796;6.942;2023-03-26T01:33:20;6.90;99.90
52381;DHT22;38310;52.796;6.942;2023-03-26T01:36:01;6.80;99.90
52381;DHT22;38310;52.796;6.942;2023-03-26T01:38:58;6.80;99.90
52381;DHT22;38310;52.796;6.942;2023-03-26T01:41:45;6.70;99.90
52381;DHT22;38310;52.796;6.942;2023-03-26T01:46:50;6.60;99.90
52381;DHT22;38310;52.796;6.942;2023-03-26T01:49:17;6.60;99.90
52381;DHT22;38310;52.796;6.942;2023-03-26T01:51:43;6.80;99.90
52381;DHT22;38310;52.796;6.942;2023-03-26T01:54:20;6.50;99.90
52381;DHT22;38310;52.796;6.942;2023-03-26T01:57:08;6.90;99.90
52381;DHT22;38310;52.796;6.942;2023-03-26T02:00:02;6.40;99.90
52381;DHT22;38310;52.796;6.942;2023-03-26T02:06:04;6.40;99.90
52381;DHT22;38310;52.796;6.942;2023-03-26T02:08:44;6.50;99.90
52381;DHT22;38310;52.796;6.942;2023-03-26T02:11:13;6.30;99.90
52381;DHT22;38310;52.796;6.942;2023-03-26T02:13:42;6.30;99.90
52381;DHT22;38310;52.796;6.942;2023-03-26T02:16:11;6.30;99.90
52381;DHT22;38310;52.796;6.942;2023-03-26T02:18:42;6.80;99.90
52381;DHT22;38310;52.796;6.942;2023-03-26T02:21:14;6.30;99.90
52381;DHT22;38310;52.796;6.942;2023-03-26T02:23:45;6.30;99.90
52381;DHT22;38310;52.796;6.942;2023-03-26T02:26:16;6.30;99.90
52381;DHT22;38310;52.796;6.942;2023-03-26T02:28:42;6.30;99.90
52381;DHT22;38310;52.796;6.942;2023-03-26T02:31:08;6.40;99.90
52381;DHT22;38310;52.796;6.942;2023-03-26T02:33:36;6.80;99.90
52381;DHT22;38310;52.796;6.942;2023-03-26T02:36:02;6.40;99.90
52381;DHT22;38310;52.796;6.942;2023-03-26T02:38:30;6.40;99.90
52381;DHT22;38310;52.796;6.942;2023-03-26T02:40:58;6.50;99.90
52381;DHT22;38310;52.796;6.942;2023-03-26T02:43:24;6.40;99.90
52381;DHT22;38310;52.796;6.942;2023-03-26T02:45:50;6.40;99.90
52381;DHT22;38310;52.796;6.942;2023-03-26T02:48:15;6.40;99.90
52381;DHT22;38310;52.796;6.942;2023-03-26T02:50:42;6.40;99.90
52381;DHT22;38310;52.796;6.942;2023-03-26T02:53:08;6.40;99.90
52381;DHT22;38310;52.796;6.942;2023-03-26T02:55:34;6.30;99.90
52381;DHT22;38310;52.796;6.942;2023-03-26T02:58:00;6.40;99.90
52381;DHT22;38310;52.796;6.942;2023-03-26T03:00:25;6.30;99.90
52381;DHT22;38310;52.796;6.942;2023-03-26T03:02:51;6.80;99.90
52381;DHT22;38310;52.796;6.942;2023-03-26T03:05:18;6.60;99.90
52381;DHT22;38310;52.796;6.942;2023-03-26T03:07:45;6.20;99.90
52381;DHT22;38310;52.796;6.942;2023-03-26T03:10:12;6.30;99.90
52381;DHT22;38310;52.796;6.942;2023-03-26T03:12:40;6.20;99.90
52381;DHT22;38310;52.796;6.942;2023-03-26T03:15:07;6.20;99.90
52381;DHT22;38310;52.796;6.942;2023-03-26T03:17:33;6.20;99.90
52381;DHT22;38310;52.796;6.942;2023-03-26T03:19:59;6.20;99.90
52381;DHT22;38310;52.796;6.942;2023-03-26T03:22:25;6.10;99.90
52381;DHT22;38310;52.796;6.942;2023-03-26T03:24:51;6.20;99.90
52381;DHT22;38310;52.796;6.942;2023-03-26T03:27:17;6.00;99.90
52381;DHT22;38310;52.796;6.942;2023-03-26T03:29:45;6.00;99.90
52381;DHT22;38310;52.796;6.942;2023-03-26T03:32:11;6.00;99.90
52381;DHT22;38310;52.796;6.942;2023-03-26T03:34:37;5.90;99.90
52381;DHT22;38310;52.796;6.942;2023-03-26T03:37:04;6.00;99.90
52381;DHT22;38310;52.796;6.942;2023-03-26T03:39:29;5.90;99.90
52381;DHT22;38310;52.796;6.942;2023-03-26T03:41:55;6.40;99.90
52381;DHT22;38310;52.796;6.942;2023-03-26T03:44:21;5.70;99.90
52381;DHT22;38310;52.796;6.942;2023-03-26T03:46:47;5.70;99.90
52381;DHT22;38310;52.796;6.942;2023-03-26T03:49:14;5.90;99.90
52381;DHT22;38310;52.796;6.942;2023-03-26T03:51:39;5.60;99.90
52381;DHT22;38310;52.796;6.942;2023-03-26T03:54:07;5.50;99.90
52381;DHT22;38310;52.796;6.942;2023-03-26T03:56:33;5.40;99.90
52381;DHT22;38310;52.796;6.942;2023-03-26T03:59:00;4.20;99.90
52381;DHT22;38310;52.796;6.942;2023-03-26T04:01:26;5.50;99.90
52381;DHT22;38310;52.796;6.942;2023-03-26T04:03:55;5.40;99.90
52381;DHT22;38310;52.796;6.942;2023-03-26T04:06:21;5.30;99.90
52381;DHT22;38310;52.796;6.942;2023-03-26T04:08:50;5.30;99.90
52381;DHT22;38310;52.796;6.942;2023-03-26T04:11:16;5.20;99.90
52381;DHT22;38310;52.796;6.942;2023-03-26T04:13:42;5.20;99.90
52381;DHT22;38310;52.796;6.942;2023-03-26T04:16:08;5.10;99.90
52381;DHT22;38310;52.796;6.942;2023-03-26T04:18:35;5.00;99.90
52381;DHT22;38310;52.796;6.942;2023-03-26T04:21:03;5.00;99.90
52381;DHT22;38310;52.796;6.942;2023-03-26T04:23:30;4.90;99.90
52381;DHT22;38310;52.796;6.942;2023-03-26T04:25:57;5.20;99.90
52381;DHT22;38310;52.796;6.942;2023-03-26T04:28:40;4.90;99.90
52381;DHT22;38310;52.796;6.942;2023-03-26T04:31:08;5.40;99.90
52381;DHT22;38310;52.796;6.942;2023-03-26T04:33:36;4.90;99.90
52381;DHT22;38310;52.796;6.942;2023-03-26T04:36:04;4.80;99.90
52381;DHT22;38310;52.796;6.942;2023-03-26T04:38:35;4.80;99.90
52381;DHT22;38310;52.796;6.942;2023-03-26T04:41:03;5.40;99.90
52381;DHT22;38310;52.796;6.942;2023-03-26T04:43:32;4.70;99.90
52381;DHT22;38310;52.796;6.942;2023-03-26T04:46:00;4.80;99.90
52381;DHT22;38310;52.796;6.942;2023-03-26T04:48:28;3.70;99.90
52381;DHT22;38310;52.796;6.942;2023-03-26T04:50:54;4.80;99.90
52381;DHT22;38310;52.796;6.942;2023-03-26T04:53:20;4.80;99.90
52381;DHT22;38310;52.796;6.942;2023-03-26T04:58:28;4.90;99.90
52381;DHT22;38310;52.796;6.942;2023-03-26T05:01:01;5.00;99.90
52381;DHT22;38310;52.796;6.942;2023-03-26T05:03:28;5.10;99.90
52381;DHT22;38310;52.796;6.942;2023-03-26T05:06:00;5.60;99.90
52381;DHT22;38310;52.796;6.942;2023-03-26T05:08:26;5.40;99.90
52381;DHT22;38310;52.796;6.942;2023-03-26T05:10:56;5.70;99.90
52381;DHT22;38310;52.796;6.942;2023-03-26T05:13:22;5.40;99.90
52381;DHT22;38310;52.796;6.942;2023-03-26T05:15:48;5.40;99.90
52381;DHT22;38310;52.796;6.942;2023-03-26T05:18:14;5.40;99.90
52381;DHT22;38310;52.796;6.942;2023-03-26T05:20:41;5.50;99.90
52381;DHT22;38310;52.796;6.942;2023-03-26T05:23:06;5.60;99.90
52381;DHT22;38310;52.796;6.942;2023-03-26T05:25:32;5.50;99.90
52381;DHT22;38310;52.796;6.942;2023-03-26T05:27:59;6.50;99.90
52381;DHT22;38310;52.796;6.942;2023-03-26T05:30:26;5.70;99.90
52381;DHT22;38310;52.796;6.942;2023-03-26T05:32:51;5.70;99.90
52381;DHT22;38310;52.796;6.942;2023-03-26T05:35:18;5.70;99.90
52381;DHT22;38310;52.796;6.942;2023-03-26T05:37:45;5.70;99.90
52381;DHT22;38310;52.796;6.942;2023-03-26T05:40:12;6.30;99.90
52381;DHT22;38310;52.796;6.942;2023-03-26T05:42:40;6.70;99.90
52381;DHT22;38310;52.796;6.942;2023-03-26T05:45:10;5.80;99.90
52381;DHT22;38310;52.796;6.942;2023-03-26T05:47:36;5.80;99.90
52381;DHT22;38310;52.796;6.942;2023-03-26T05:50:03;5.80;99.90
52381;DHT22;38310;52.796;6.942;2023-03-26T05:52:29;5.80;99.90
52381;DHT22;38310;52.796;6.942;2023-03-26T05:54:55;6.40;99.90
52381;DHT22;38310;52.796;6.942;2023-03-26T05:57:21;5.90;99.90
52381;DHT22;38310;52.796;6.942;2023-03-26T05:59:53;6.20;99.90
52381;DHT22;38310;52.796;6.942;2023-03-26T06:02:20;6.20;99.90
52381;DHT22;38310;52.796;6.942;2023-03-26T06:04:45;5.90;99.90
52381;DHT22;38310;52.796;6.942;2023-03-26T06:07:11;5.90;99.90
52381;DHT22;38310;52.796;6.942;2023-03-26T06:09:40;6.00;99.90
52381;DHT22;38310;52.796;6.942;2023-03-26T06:12:07;6.20;99.90
52381;DHT22;38310;52.796;6.942;2023-03-26T06:14:34;6.00;99.90
52381;DHT22;38310;52.796;6.942;2023-03-26T06:17:00;6.10;99.90
52381;DHT22;38310;52.796;6.942;2023-03-26T06:19:26;6.10;99.90
52381;DHT22;38310;52.796;6.942;2023-03-26T06:21:51;6.10;99.90
52381;DHT22;38310;52.796;6.942;2023-03-26T06:24:17;6.20;99.90
52381;DHT22;38310;52.796;6.942;2023-03-26T06:26:44;6.20;99.90
52381;DHT22;38310;52.796;6.942;2023-03-26T06:29:12;6.20;99.90
52381;DHT22;38310;52.796;6.942;2023-03-26T06:31:39;6.70;99.90
52381;DHT22;38310;52.796;6.942;2023-03-26T06:34:05;6.40;99.90
52381;DHT22;38310;52.796;6.942;2023-03-26T06:36:31;6.30;99.90
52381;DHT22;38310;52.796;6.942;2023-03-26T06:38:56;6.30;99.90
52381;DHT22;38310;52.796;6.942;2023-03-26T06:41:22;6.30;99.90
52381;DHT22;38310;52.796;6.942;2023-03-26T06:43:48;6.30;99.90
52381;DHT22;38310;52.796;6.942;2023-03-26T06:46:14;6.30;99.90
52381;DHT22;38310;52.796;6.942;2023-03-26T06:48:41;6.30;99.90
52381;DHT22;38310;52.796;6.942;2023-03-26T06:51:08;6.40;99.90
52381;DHT22;38310;52.796;6.942;2023-03-26T06:53:34;6.40;99.90
52381;DHT22;38310;52.796;6.942;2023-03-26T06:55:59;6.40;99.90
52381;DHT22;38310;52.796;6.942;2023-03-26T06:58:27;6.50;99.90
52381;DHT22;38310;52.796;6.942;2023-03-26T07:00:53;6.50;99.90
52381;DHT22;38310;52.796;6.942;2023-03-26T07:03:19;6.50;99.90
52381;DHT22;38310;52.796;6.942;2023-03-26T07:05:46;6.80;99.90
52381;DHT22;38310;52.796;6.942;2023-03-26T07:08:11;6.60;99.90
52381;DHT22;38310;52.796;6.942;2023-03-26T07:10:37;6.70;99.90
52381;DHT22;38310;52.796;6.942;2023-03-26T07:13:03;6.70;99.90
52381;DHT22;38310;52.796;6.942;2023-03-26T07:15:28;6.70;99.90
52381;DHT22;38310;52.796;6.942;2023-03-26T07:17:54;6.80;99.90
52381;DHT22;38310;52.796;6.942;2023-03-26T07:20:20;6.80;99.90
52381;DHT22;38310;52.796;6.942;2023-03-26T07:22:47;6.90;99.90
52381;DHT22;38310;52.796;6.942;2023-03-26T07:25:13;6.90;99.90
52381;DHT22;38310;52.796;6.942;2023-03-26T07:27:45;7.00;99.90
52381;DHT22;38310;52.796;6.942;2023-03-26T07:30:36;7.00;99.90
52381;DHT22;38310;52.796;6.942;2023-03-26T07:33:33;7.10;99.90
52381;DHT22;38310;52.796;6.942;2023-03-26T07:42:25;7.20;99.90
52381;DHT22;38310;52.796;6.942;2023-03-26T07:47:27;7.40;99.90
52381;DHT22;38310;52.796;6.942;2023-03-26T07:49:54;7.40;99.90
52381;DHT22;38310;52.796;6.942;2023-03-26T07:52:22;7.40;99.90
52381;DHT22;38310;52.796;6.942;2023-03-26T07:54:48;8.70;99.90
52381;DHT22;38310;52.796;6.942;2023-03-26T08:00:11;7.40;99.90
52381;DHT22;38310;52.796;6.942;2023-03-26T08:05:39;7.50;99.90
52381;DHT22;38310;52.796;6.942;2023-03-26T08:09:10;7.50;99.90
52381;DHT22;38310;52.796;6.942;2023-03-26T08:14:27;7.50;99.90
52381;DHT22;38310;52.796;6.942;2023-03-26T08:17:08;7.50;99.90
52381;DHT22;38310;52.796;6.942;2023-03-26T08:22:21;7.50;99.90
52381;DHT22;38310;52.796;6.942;2023-03-26T08:31:05;7.50;99.90
52381;DHT22;38310;52.796;6.942;2023-03-26T08:33:32;7.60;99.90
52381;DHT22;38310;52.796;6.942;2023-03-26T08:35:58;7.60;99.90
52381;DHT22;38310;52.796;6.942;2023-03-26T08:38:24;7.70;99.90
52381;DHT22;38310;52.796;6.942;2023-03-26T08:49:41;7.10;99.90
52381;DHT22;38310;52.796;6.942;2023-03-26T09:01:06;8.00;99.90
52381;DHT22;38310;52.796;6.942;2023-03-26T09:12:00;8.40;99.90
52381;DHT22;38310;52.796;6.942;2023-03-26T09:25:53;8.60;99.90
52381;DHT22;38310;52.796;6.942;2023-03-26T09:42:16;8.70;99.90
52381;DHT22;38310;52.796;6.942;2023-03-26T09:55:52;8.80;99.90
52381;DHT22;38310;52.796;6.942;2023-03-26T10:12:42;9.10;99.90
52381;DHT22;38310;52.796;6.942;2023-03-26T10:15:17;9.20;99.90
52381;DHT22;38310;52.796;6.942;2023-03-26T10:18:02;9.20;99.90
52381;DHT22;38310;52.796;6.942;2023-03-26T10:20:42;9.30;99.90
52381;DHT22;38310;52.796;6.942;2023-03-26T10:26:22;9.40;99.90
52381;DHT22;38310;52.796;6.942;2023-03-26T10:34:45;9.50;99.90
52381;DHT22;38310;52.796;6.942;2023-03-26T10:42:49;9.80;99.90
52381;DHT22;38310;52.796;6.942;2023-03-26T10:45:43;9.80;99.90
52381;DHT22;38310;52.796;6.942;2023-03-26T10:53:36;9.90;99.90
52381;DHT22;38310;52.796;6.942;2023-03-26T10:58:55;9.90;99.90
52381;DHT22;38310;52.796;6.942;2023-03-26T11:01:45;9.80;99.90
52381;DHT22;38310;52.796;6.942;2023-03-26T11:15:02;10.00;99.90
52381;DHT22;38310;52.796;6.942;2023-03-26T11:20:18;10.10;99.90
52381;DHT22;38310;52.796;6.942;2023-03-26T11:33:43;10.00;99.90
52381;DHT22;38310;52.796;6.942;2023-03-26T11:36:13;9.90;99.90
52381;DHT22;38310;52.796;6.942;2023-03-26T11:38:43;9.90;99.90
52381;DHT22;38310;52.796;6.942;2023-03-26T11:41:22;9.90;99.90
52381;DHT22;38310;52.796;6.942;2023-03-26T11:43:58;9.90;99.90
52381;DHT22;38310;52.796;6.942;2023-03-26T11:46:27;9.80;99.90
52381;DHT22;38310;52.796;6.942;2023-03-26T11:49:02;9.70;99.90
52381;DHT22;38310;52.796;6.942;2023-03-26T11:51:38;9.70;99.90
52381;DHT22;38310;52.796;6.942;2023-03-26T11:54:06;9.70;99.90
52381;DHT22;38310;52.796;6.942;2023-03-26T12:04:43;9.80;99.90
52381;DHT22;38310;52.796;6.942;2023-03-26T12:07:32;9.80;99.90
52381;DHT22;38310;52.796;6.942;2023-03-26T12:12:28;9.80;99.90
52381;DHT22;38310;52.796;6.942;2023-03-26T12:14:56;9.70;99.90
52381;DHT22;38310;52.796;6.942;2023-03-26T12:17:34;9.80;99.90
52381;DHT22;38310;52.796;6.942;2023-03-26T12:20:00;9.80;99.90
52381;DHT22;38310;52.796;6.942;2023-03-26T12:25:17;9.80;99.90
52381;DHT22;38310;52.796;6.942;2023-03-26T12:27:47;9.80;99.90
52381;DHT22;38310;52.796;6.942;2023-03-26T12:30:24;9.90;99.90
52381;DHT22;38310;52.796;6.942;2023-03-26T12:32:51;10.00;99.90
52381;DHT22;38310;52.796;6.942;2023-03-26T12:35:29;10.00;99.90
52381;DHT22;38310;52.796;6.942;2023-03-26T12:38:12;10.10;99.90
52381;DHT22;38310;52.796;6.942;2023-03-26T12:40:38;10.10;99.90
52381;DHT22;38310;52.796;6.942;2023-03-26T12:43:20;10.30;99.90
52381;DHT22;38310;52.796;6.942;2023-03-26T12:45:50;10.30;99.90
52381;DHT22;38310;52.796;6.942;2023-03-26T12:48:18;10.70;99.90
52381;DHT22;38310;52.796;6.942;2023-03-26T12:54:10;11.40;99.90
52381;DHT22;38310;52.796;6.942;2023-03-26T12:56:56;11.60;99.90
52381;DHT22;38310;52.796;6.942;2023-03-26T13:05:19;11.80;99.90
52381;DHT22;38310;52.796;6.942;2023-03-26T13:19:02;11.60;99.90
52381;DHT22;38310;52.796;6.942;2023-03-26T13:27:00;11.40;99.90
52381;DHT22;38310;52.796;6.942;2023-03-26T13:35:04;11.10;99.90
52381;DHT22;38310;52.796;6.942;2023-03-26T13:38:04;10.90;99.90
52381;DHT22;38310;52.796;6.942;2023-03-26T13:44:06;10.80;99.90
52381;DHT22;38310;52.796;6.942;2023-03-26T13:46:46;10.60;99.90
52381;DHT22;38310;52.796;6.942;2023-03-26T13:49:15;10.60;99.90
52381;DHT22;38310;52.796;6.942;2023-03-26T13:51:49;10.50;99.90
52381;DHT22;38310;52.796;6.942;2023-03-26T13:56:54;10.50;99.90
52381;DHT22;38310;52.796;6.942;2023-03-26T13:59:36;10.50;99.90
52381;DHT22;38310;52.796;6.942;2023-03-26T14:02:22;10.30;99.90
52381;DHT22;38310;52.796;6.942;2023-03-26T14:04:55;10.50;99.90
52381;DHT22;38310;52.796;6.942;2023-03-26T14:07:29;10.60;99.90
52381;DHT22;38310;52.796;6.942;2023-03-26T14:10:23;10.60;99.90
52381;DHT22;38310;52.796;6.942;2023-03-26T14:13:05;10.50;99.90
52381;DHT22;38310;52.796;6.942;2023-03-26T14:15:50;10.20;99.90
52381;DHT22;38310;52.796;6.942;2023-03-26T14:29:36;9.70;99.90
52381;DHT22;38310;52.796;6.942;2023-03-26T14:37:32;9.70;99.90
52381;DHT22;38310;52.796;6.942;2023-03-26T14:40:29;9.90;99.90
52381;DHT22;38310;52.796;6.942;2023-03-26T14:46:06;10.10;99.90
52381;DHT22;38310;52.796;6.942;2023-03-26T14:51:11;10.00;99.90
52381;DHT22;38310;52.796;6.942;2023-03-26T14:53:48;9.90;99.90
52381;DHT22;38310;52.796;6.942;2023-03-26T15:10:33;9.50;99.90
52381;DHT22;38310;52.796;6.942;2023-03-26T15:30:00;9.30;99.90
52381;DHT22;38310;52.796;6.942;2023-03-26T15:38:55;9.90;99.90
52381;DHT22;38310;52.796;6.942;2023-03-26T15:41:25;8.90;99.90
52381;DHT22;38310;52.796;6.942;2023-03-26T15:46:58;8.90;99.90
52381;DHT22;38310;52.796;6.942;2023-03-26T15:49:44;9.00;99.90
52381;DHT22;38310;52.796;6.942;2023-03-26T15:52:30;8.90;99.90
52381;DHT22;38310;52.796;6.942;2023-03-26T15:58:01;8.80;99.90
52381;DHT22;38310;52.796;6.942;2023-03-26T16:00:34;8.70;99.90
52381;DHT22;38310;52.796;6.942;2023-03-26T16:14:19;8.40;99.90
52381;DHT22;38310;52.796;6.942;2023-03-26T16:16:57;8.40;99.90
52381;DHT22;38310;52.796;6.942;2023-03-26T16:19:49;8.40;99.90
52381;DHT22;38310;52.796;6.942;2023-03-26T16:22:44;8.30;99.90
52381;DHT22;38310;52.796;6.942;2023-03-26T16:25:26;8.30;99.90
52381;DHT22;38310;52.796;6.942;2023-03-26T16:30:37;8.20;99.90
52381;DHT22;38310;52.796;6.942;2023-03-26T16:38:59;8.10;99.90
52381;DHT22;38310;52.796;6.942;2023-03-26T16:41:49;8.00;99.90
52381;DHT22;38310;52.796;6.942;2023-03-26T16:55:39;7.50;99.90
52381;DHT22;38310;52.796;6.942;2023-03-26T17:01:16;7.30;99.90
52381;DHT22;38310;52.796;6.942;2023-03-26T17:04:03;7.20;99.90
52381;DHT22;38310;52.796;6.942;2023-03-26T17:17:34;6.80;99.90
52381;DHT22;38310;52.796;6.942;2023-03-26T17:23:08;6.70;99.90
52381;DHT22;38310;52.796;6.942;2023-03-26T17:25:56;6.70;99.90
52381;DHT22;38310;52.796;6.942;2023-03-26T17:33:36;6.50;99.90
52381;DHT22;38310;52.796;6.942;2023-03-26T17:36:34;6.40;99.90
52381;DHT22;38310;52.796;6.942;2023-03-26T17:39:46;6.40;99.90
52381;DHT22;38310;52.796;6.942;2023-03-26T17:42:31;6.30;99.90
52381;DHT22;38310;52.796;6.942;2023-03-26T17:45:15;6.20;99.90
52381;DHT22;38310;52.796;6.942;2023-03-26T17:47:52;6.20;99.90
52381;DHT22;38310;52.796;6.942;2023-03-26T17:50:39;6.00;99.90
52381;DHT22;38310;52.796;6.942;2023-03-26T17:53:22;6.00;99.90
52381;DHT22;38310;52.796;6.942;2023-03-26T17:55:49;5.90;99.90
52381;DHT22;38310;52.796;6.942;2023-03-26T17:58:41;6.00;99.90
52381;DHT22;38310;52.796;6.942;2023-03-26T18:03:46;6.20;99.90
52381;DHT22;38310;52.796;6.942;2023-03-26T18:06:47;5.70;99.90
52381;DHT22;38310;52.796;6.942;2023-03-26T18:18:22;5.90;99.90
52381;DHT22;38310;52.796;6.942;2023-03-26T18:20:50;5.40;99.90
52381;DHT22;38310;52.796;6.942;2023-03-26T18:23:31;5.40;99.90
52381;DHT22;38310;52.796;6.942;2023-03-26T18:26:15;5.30;99.90
52381;DHT22;38310;52.796;6.942;2023-03-26T18:28:52;5.30;99.90
52381;DHT22;38310;52.796;6.942;2023-03-26T18:31:25;5.20;99.90
52381;DHT22;38310;52.796;6.942;2023-03-26T18:33:56;5.20;99.90
52381;DHT22;38310;52.796;6.942;2023-03-26T18:36:29;5.50;99.90
52381;DHT22;38310;52.796;6.942;2023-03-26T18:38:57;5.10;99.90
52381;DHT22;38310;52.796;6.942;2023-03-26T18:44:00;5.60;99.90
52381;DHT22;38310;52.796;6.942;2023-03-26T18:46:27;5.00;99.90
52381;DHT22;38310;52.796;6.942;2023-03-26T18:48:53;5.00;99.90
52381;DHT22;38310;52.796;6.942;2023-03-26T18:51:20;6.10;99.90
52381;DHT22;38310;52.796;6.942;2023-03-26T18:54:07;5.00;99.90
52381;DHT22;38310;52.796;6.942;2023-03-26T18:56:35;5.00;99.90
52381;DHT22;38310;52.796;6.942;2023-03-26T18:59:04;4.90;99.90
52381;DHT22;38310;52.796;6.942;2023-03-26T19:01:33;4.90;99.90
52381;DHT22;38310;52.796;6.942;2023-03-26T19:04:02;4.90;99.90
52381;DHT22;38310;52.796;6.942;2023-03-26T19:06:31;4.90;99.90
52381;DHT22;38310;52.796;6.942;2023-03-26T19:09:02;4.90;99.90
52381;DHT22;38310;52.796;6.942;2023-03-26T19:11:30;6.00;99.90
52381;DHT22;38310;52.796;6.942;2023-03-26T19:14:26;4.50;99.90
52381;DHT22;38310;52.796;6.942;2023-03-26T19:16:58;4.80;99.90
52381;DHT22;38310;52.796;6.942;2023-03-26T19:19:30;4.80;99.90
52381;DHT22;38310;52.796;6.942;2023-03-26T19:21:56;4.80;99.90
52381;DHT22;38310;52.796;6.942;2023-03-26T19:24:22;4.80;99.90
52381;DHT22;38310;52.796;6.942;2023-03-26T19:26:49;4.80;99.90
52381;DHT22;38310;52.796;6.942;2023-03-26T19:29:27;4.70;99.90
52381;DHT22;38310;52.796;6.942;2023-03-26T19:32:02;4.70;99.90
52381;DHT22;38310;52.796;6.942;2023-03-26T19:34:39;4.90;99.90
52381;DHT22;38310;52.796;6.942;2023-03-26T19:37:22;4.60;99.90
52381;DHT22;38310;52.796;6.942;2023-03-26T19:42:37;4.60;99.90
52381;DHT22;38310;52.796;6.942;2023-03-26T19:45:04;4.50;99.90
52381;DHT22;38310;52.796;6.942;2023-03-26T19:47:41;4.50;99.90
52381;DHT22;38310;52.796;6.942;2023-03-26T19:53:04;4.30;99.90
52381;DHT22;38310;52.796;6.942;2023-03-26T19:55:30;4.20;99.90
52381;DHT22;38310;52.796;6.942;2023-03-26T19:57:58;4.20;99.90
52381;DHT22;38310;52.796;6.942;2023-03-26T20:00:23;4.20;99.90
52381;DHT22;38310;52.796;6.942;2023-03-26T20:02:49;4.20;99.90
52381;DHT22;38310;52.796;6.942;2023-03-26T20:05:21;4.10;99.90
52381;DHT22;38310;52.796;6.942;2023-03-26T20:07:48;4.00;99.90
52381;DHT22;38310;52.796;6.942;2023-03-26T20:10:18;5.40;99.90
52381;DHT22;38310;52.796;6.942;2023-03-26T20:12:44;4.00;99.90
52381;DHT22;38310;52.796;6.942;2023-03-26T20:15:25;3.90;99.90
52381;DHT22;38310;52.796;6.942;2023-03-26T20:17:52;3.90;99.90
52381;DHT22;38310;52.796;6.942;2023-03-26T20:20:24;3.80;99.90
52381;DHT22;38310;52.796;6.942;2023-03-26T20:22:51;3.80;99.90
52381;DHT22;38310;52.796;6.942;2023-03-26T20:25:23;3.80;99.90
52381;DHT22;38310;52.796;6.942;2023-03-26T20:27:50;3.90;99.90
52381;DHT22;38310;52.796;6.942;2023-03-26T20:30:20;3.90;99.90
52381;DHT22;38310;52.796;6.942;2023-03-26T20:32:47;3.90;99.90
52381;DHT22;38310;52.796;6.942;2023-03-26T20:35:17;3.90;99.90
52381;DHT22;38310;52.796;6.942;2023-03-26T20:37:45;3.90;99.90
52381;DHT22;38310;52.796;6.942;2023-03-26T20:40:12;5.40;99.90
52381;DHT22;38310;52.796;6.942;2023-03-26T20:42:39;3.80;99.90
52381;DHT22;38310;52.796;6.942;2023-03-26T20:45:20;3.80;99.90
52381;DHT22;38310;52.796;6.942;2023-03-26T20:47:47;4.10;99.90
52381;DHT22;38310;52.796;6.942;2023-03-26T20:50:19;4.60;99.90
52381;DHT22;38310;52.796;6.942;2023-03-26T20:52:47;3.70;99.90
52381;DHT22;38310;52.796;6.942;2023-03-26T20:55:18;4.70;99.90
52381;DHT22;38310;52.796;6.942;2023-03-26T20:57:46;3.70;99.90
52381;DHT22;38310;52.796;6.942;2023-03-26T21:00:14;3.70;99.90
52381;DHT22;38310;52.796;6.942;2023-03-26T21:02:52;3.70;99.90
52381;DHT22;38310;52.796;6.942;2023-03-26T21:05:20;3.70;99.90
52381;DHT22;38310;52.796;6.942;2023-03-26T21:07:51;3.70;99.90
52381;DHT22;38310;52.796;6.942;2023-03-26T21:10:18;3.60;99.90
52381;DHT22;38310;52.796;6.942;2023-03-26T21:15:14;4.90;99.90
52381;DHT22;38310;52.796;6.942;2023-03-26T21:17:40;3.60;99.90
52381;DHT22;38310;52.796;6.942;2023-03-26T21:20:07;3.60;99.90
52381;DHT22;38310;52.796;6.942;2023-03-26T21:30:36;3.60;99.90
52381;DHT22;38310;52.796;6.942;2023-03-26T21:33:02;3.60;99.90
52381;DHT22;38310;52.796;6.942;2023-03-26T21:35:30;3.60;99.90
52381;DHT22;38310;52.796;6.942;2023-03-26T21:37:56;3.60;99.90
52381;DHT22;38310;52.796;6.942;2023-03-26T21:40:22;3.60;99.90
52381;DHT22;38310;52.796;6.942;2023-03-26T21:42:50;3.60;99.90
52381;DHT22;38310;52.796;6.942;2023-03-26T21:45:18;3.60;99.90
52381;DHT22;38310;52.796;6.942;2023-03-26T21:47:44;3.60;99.90
52381;DHT22;38310;52.796;6.942;2023-03-26T21:50:13;3.60;99.90
52381;DHT22;38310;52.796;6.942;2023-03-26T21:52:39;3.60;99.90
52381;DHT22;38310;52.796;6.942;2023-03-26T21:55:22;3.60;99.90
52381;DHT22;38310;52.796;6.942;2023-03-26T21:57:51;3.70;99.90
52381;DHT22;38310;52.796;6.942;2023-03-26T22:00:21;4.70;99.90
52381;DHT22;38310;52.796;6.942;2023-03-26T22:08:04;3.70;99.90
52381;DHT22;38310;52.796;6.942;2023-03-26T22:10:30;3.60;99.90
52381;DHT22;38310;52.796;6.942;2023-03-26T22:12:57;3.60;99.90
52381;DHT22;38310;52.796;6.942;2023-03-26T22:15:24;3.60;99.90
52381;DHT22;38310;52.796;6.942;2023-03-26T22:18:02;3.60;99.90